sensor_id;sensor_type;location;lat;lon;timestamp;temperature;humidity
16974;DHT22;8603;46.944;7.412;2023-04-25T00:02:18;8.60;99.90
16974;DHT22;8603;46.944;7.412;2023-04-25T00:04:44;8.60;99.90
16974;DHT22;8603;46.944;7.412;2023-04-25T00:07:10;8.60;99.90
16974;DHT22;8603;46.944;7.412;2023-04-25T00:09:36;8.60;99.90
16974;DHT22;8603;46.944;7.412;2023-04-25T00:12:02;8.50;99.90
16974;DHT22;8603;46.944;7.412;2023-04-25T00:14:29;8.60;99.90
16974;DHT22;8603;46.944;7.412;2023-04-25T00:16:54;8.50;99.90
16974;DHT22;8603;46.944;7.412;2023-04-25T00:19:20;8.50;99.90
16974;DHT22;8603;46.944;7.412;2023-04-25T00:21:46;8.50;99.90
16974;DHT22;8603;46.944;7.412;2023-04-25T00:24:12;8.60;99.90
16974;DHT22;8603;46.944;7.412;2023-04-25T00:26:38;8.40;99.90
16974;DHT22;8603;46.944;7.412;2023-04-25T00:29:04;8.40;99.90
16974;DHT22;8603;46.944;7.412;2023-04-25T00:31:29;8.40;99.90
16974;DHT22;8603;46.944;7.412;2023-04-25T00:33:55;8.40;99.90
16974;DHT22;8603;46.944;7.412;2023-04-25T00:36:21;8.30;99.90
16974;DHT22;8603;46.944;7.412;2023-04-25T00:38:47;8.40;99.90
16974;DHT22;8603;46.944;7.412;2023-04-25T00:41:13;8.30;99.90
16974;DHT22;8603;46.944;7.412;2023-04-25T00:43:40;8.30;99.90
16974;DHT22;8603;46.944;7.412;2023-04-25T00:46:06;8.20;99.90
16974;DHT22;8603;46.944;7.412;2023-04-25T00:48:31;8.30;99.90
16974;DHT22;8603;46.944;7.412;2023-04-25T00:50:58;8.20;99.90
16974;DHT22;8603;46.944;7.412;2023-04-25T00:53:25;8.20;99.90
16974;DHT22;8603;46.944;7.412;2023-04-25T00:55:51;8.30;99.90
16974;DHT22;8603;46.944;7.412;2023-04-25T00:58:18;8.30;99.90
16974;DHT22;8603;46.944;7.412;2023-04-25T01:00:45;8.20;99.90
16974;DHT22;8603;46.944;7.412;2023-04-25T01:03:15;8.20;99.90
16974;DHT22;8603;46.944;7.412;2023-04-25T01:05:50;8.20;99.90
16974;DHT22;8603;46.944;7.412;2023-04-25T01:08:16;8.10;99.90
16974;DHT22;8603;46.944;7.412;2023-04-25T01:10:41;8.20;99.90
16974;DHT22;8603;46.944;7.412;2023-04-25T01:13:07;8.10;99.90
16974;DHT22;8603;46.944;7.412;2023-04-25T01:15:33;8.10;99.90
16974;DHT22;8603;46.944;7.412;2023-04-25T01:18:01;8.10;99.90
16974;DHT22;8603;46.944;7.412;2023-04-25T01:20:27;8.20;99.90
16974;DHT22;8603;46.944;7.412;2023-04-25T01:22:54;8.20;99.90
16974;DHT22;8603;46.944;7.412;2023-04-25T01:25:21;8.30;99.90
16974;DHT22;8603;46.944;7.412;2023-04-25T01:27:47;8.30;99.90
16974;DHT22;8603;46.944;7.412;2023-04-25T01:30:13;8.30;99.90
16974;DHT22;8603;46.944;7.412;2023-04-25T01:32:40;8.40;99.90
16974;DHT22;8603;46.944;7.412;2023-04-25T01:35:08;8.50;99.90
16974;DHT22;8603;46.944;7.412;2023-04-25T01:37:40;8.40;99.90
16974;DHT22;8603;46.944;7.412;2023-04-25T01:40:07;8.40;99.90
16974;DHT22;8603;46.944;7.412;2023-04-25T01:42:34;8.40;99.90
16974;DHT22;8603;46.944;7.412;2023-04-25T01:45:01;8.40;99.90
16974;DHT22;8603;46.944;7.412;2023-04-25T01:47:27;8.30;99.90
16974;DHT22;8603;46.944;7.412;2023-04-25T01:49:53;8.40;99.90
16974;DHT22;8603;46.944;7.412;2023-04-25T01:52:19;8.50;99.90
16974;DHT22;8603;46.944;7.412;2023-04-25T01:54:45;8.30;99.90
16974;DHT22;8603;46.944;7.412;2023-04-25T01:57:11;8.30;99.90
16974;DHT22;8603;46.944;7.412;2023-04-25T01:59:37;8.20;99.90
16974;DHT22;8603;46.944;7.412;2023-04-25T02:02:02;8.30;99.90
16974;DHT22;8603;46.944;7.412;2023-04-25T02:04:29;8.30;99.90
16974;DHT22;8603;46.944;7.412;2023-04-25T02:06:55;8.20;99.90
16974;DHT22;8603;46.944;7.412;2023-04-25T02:09:21;8.30;99.90
16974;DHT22;8603;46.944;7.412;2023-04-25T02:11:47;8.30;99.90
16974;DHT22;8603;46.944;7.412;2023-04-25T02:14:13;8.30;99.90
16974;DHT22;8603;46.944;7.412;2023-04-25T02:16:38;8.30;99.90
16974;DHT22;8603;46.944;7.412;2023-04-25T02:19:05;8.40;99.90
16974;DHT22;8603;46.944;7.412;2023-04-25T02:21:30;8.40;99.90
16974;DHT22;8603;46.944;7.412;2023-04-25T02:23:56;8.40;99.90
16974;DHT22;8603;46.944;7.412;2023-04-25T02:26:22;8.40;99.90
16974;DHT22;8603;46.944;7.412;2023-04-25T02:28:49;8.40;99.90
16974;DHT22;8603;46.944;7.412;2023-04-25T02:31:15;8.40;99.90
16974;DHT22;8603;46.944;7.412;2023-04-25T02:33:40;8.30;99.90
16974;DHT22;8603;46.944;7.412;2023-04-25T02:36:06;8.20;99.90
16974;DHT22;8603;46.944;7.412;2023-04-25T02:38:32;8.20;99.90
16974;DHT22;8603;46.944;7.412;2023-04-25T02:40:58;8.10;99.90
16974;DHT22;8603;46.944;7.412;2023-04-25T02:43:24;8.10;99.90
16974;DHT22;8603;46.944;7.412;2023-04-25T02:45:49;8.00;99.90
16974;DHT22;8603;46.944;7.412;2023-04-25T02:48:15;7.90;99.90
16974;DHT22;8603;46.944;7.412;2023-04-25T02:50:41;8.00;99.90
16974;DHT22;8603;46.944;7.412;2023-04-25T02:53:06;8.00;99.90
16974;DHT22;8603;46.944;7.412;2023-04-25T02:55:32;8.10;99.90
16974;DHT22;8603;46.944;7.412;2023-04-25T02:57:57;8.00;99.90
16974;DHT22;8603;46.944;7.412;2023-04-25T03:00:23;8.00;99.90
16974;DHT22;8603;46.944;7.412;2023-04-25T03:02:49;7.90;99.90
16974;DHT22;8603;46.944;7.412;2023-04-25T03:05:14;7.90;99.90
16974;DHT22;8603;46.944;7.412;2023-04-25T03:07:40;7.90;99.90
16974;DHT22;8603;46.944;7.412;2023-04-25T03:10:07;7.90;99.90
16974;DHT22;8603;46.944;7.412;2023-04-25T03:12:32;7.80;99.90
16974;DHT22;8603;46.944;7.412;2023-04-25T03:14:58;7.70;99.90
16974;DHT22;8603;46.944;7.412;2023-04-25T03:17:23;7.70;99.90
16974;DHT22;8603;46.944;7.412;2023-04-25T03:19:49;7.60;99.90
16974;DHT22;8603;46.944;7.412;2023-04-25T03:22:15;7.50;99.90
16974;DHT22;8603;46.944;7.412;2023-04-25T03:24:40;7.50;99.90
16974;DHT22;8603;46.944;7.412;2023-04-25T03:27:06;7.50;99.90
16974;DHT22;8603;46.944;7.412;2023-04-25T03:29:32;7.40;99.90
16974;DHT22;8603;46.944;7.412;2023-04-25T03:31:57;7.30;99.90
16974;DHT22;8603;46.944;7.412;2023-04-25T03:34:23;7.10;99.90
16974;DHT22;8603;46.944;7.412;2023-04-25T03:36:49;7.00;99.90
16974;DHT22;8603;46.944;7.412;2023-04-25T03:39:15;6.90;99.90
16974;DHT22;8603;46.944;7.412;2023-04-25T03:41:41;6.70;99.90
16974;DHT22;8603;46.944;7.412;2023-04-25T03:44:06;6.70;99.90
16974;DHT22;8603;46.944;7.412;2023-04-25T03:46:32;6.40;99.90
16974;DHT22;8603;46.944;7.412;2023-04-25T03:48:58;6.30;99.90
16974;DHT22;8603;46.944;7.412;2023-04-25T03:51:25;6.20;99.90
16974;DHT22;8603;46.944;7.412;2023-04-25T03:53:51;6.10;99.90
16974;DHT22;8603;46.944;7.412;2023-04-25T03:56:17;6.00;99.90
16974;DHT22;8603;46.944;7.412;2023-04-25T03:58:43;6.10;99.90
16974;DHT22;8603;46.944;7.412;2023-04-25T04:01:08;5.80;99.90
16974;DHT22;8603;46.944;7.412;2023-04-25T04:03:35;5.80;99.90
16974;DHT22;8603;46.944;7.412;2023-04-25T04:06:02;5.80;99.90
16974;DHT22;8603;46.944;7.412;2023-04-25T04:08:29;5.90;99.90
16974;DHT22;8603;46.944;7.412;2023-04-25T04:10:55;6.00;99.90
16974;DHT22;8603;46.944;7.412;2023-04-25T04:13:21;6.30;99.90
16974;DHT22;8603;46.944;7.412;2023-04-25T04:15:46;6.20;99.90
16974;DHT22;8603;46.944;7.412;2023-04-25T04:18:12;6.30;99.90
16974;DHT22;8603;46.944;7.412;2023-04-25T04:20:37;6.40;99.90
16974;DHT22;8603;46.944;7.412;2023-04-25T04:23:03;6.40;99.90
16974;DHT22;8603;46.944;7.412;2023-04-25T04:25:29;6.50;99.90
16974;DHT22;8603;46.944;7.412;2023-04-25T04:27:55;6.50;99.90
16974;DHT22;8603;46.944;7.412;2023-04-25T04:30:24;6.50;99.90
16974;DHT22;8603;46.944;7.412;2023-04-25T04:32:51;6.70;99.90
16974;DHT22;8603;46.944;7.412;2023-04-25T04:35:19;6.60;99.90
16974;DHT22;8603;46.944;7.412;2023-04-25T04:37:44;6.70;99.90
16974;DHT22;8603;46.944;7.412;2023-04-25T04:40:11;6.70;99.90
16974;DHT22;8603;46.944;7.412;2023-04-25T04:42:37;6.70;99.90
16974;DHT22;8603;46.944;7.412;2023-04-25T04:45:03;6.80;99.90
16974;DHT22;8603;46.944;7.412;2023-04-25T04:47:29;6.70;99.90
16974;DHT22;8603;46.944;7.412;2023-04-25T04:49:58;6.80;99.90
16974;DHT22;8603;46.944;7.412;2023-04-25T04:52:23;6.90;99.90
16974;DHT22;8603;46.944;7.412;2023-04-25T04:54:49;6.90;99.90
16974;DHT22;8603;46.944;7.412;2023-04-25T04:57:15;6.80;99.90
16974;DHT22;8603;46.944;7.412;2023-04-25T04:59:41;6.90;99.90
16974;DHT22;8603;46.944;7.412;2023-04-25T05:02:07;6.90;99.90
16974;DHT22;8603;46.944;7.412;2023-04-25T05:04:33;6.90;99.90
16974;DHT22;8603;46.944;7.412;2023-04-25T05:06:58;6.90;99.90
16974;DHT22;8603;46.944;7.412;2023-04-25T05:09:24;6.80;99.90
16974;DHT22;8603;46.944;7.412;2023-04-25T05:11:51;6.90;99.90
16974;DHT22;8603;46.944;7.412;2023-04-25T05:14:17;7.00;99.90
16974;DHT22;8603;46.944;7.412;2023-04-25T05:16:43;7.00;99.90
16974;DHT22;8603;46.944;7.412;2023-04-25T05:19:09;7.00;99.90
16974;DHT22;8603;46.944;7.412;2023-04-25T05:21:35;7.10;99.90
16974;DHT22;8603;46.944;7.412;2023-04-25T05:24:01;7.20;99.90
16974;DHT22;8603;46.944;7.412;2023-04-25T05:26:29;7.40;99.90
16974;DHT22;8603;46.944;7.412;2023-04-25T05:28:57;7.20;99.90
16974;DHT22;8603;46.944;7.412;2023-04-25T05:31:25;7.30;99.90
16974;DHT22;8603;46.944;7.412;2023-04-25T05:33:51;7.30;99.90
16974;DHT22;8603;46.944;7.412;2023-04-25T05:36:19;7.20;99.90
16974;DHT22;8603;46.944;7.412;2023-04-25T05:38:45;7.20;99.90
16974;DHT22;8603;46.944;7.412;2023-04-25T05:41:11;7.00;99.90
16974;DHT22;8603;46.944;7.412;2023-04-25T05:43:36;7.00;99.90
16974;DHT22;8603;46.944;7.412;2023-04-25T05:46:02;6.90;99.90
16974;DHT22;8603;46.944;7.412;2023-04-25T05:48:28;6.90;99.90
16974;DHT22;8603;46.944;7.412;2023-04-25T05:50:54;6.90;99.90
16974;DHT22;8603;46.944;7.412;2023-04-25T05:53:20;7.00;99.90
16974;DHT22;8603;46.944;7.412;2023-04-25T05:55:46;7.00;99.90
16974;DHT22;8603;46.944;7.412;2023-04-25T05:58:12;7.00;99.90
16974;DHT22;8603;46.944;7.412;2023-04-25T06:00:37;7.00;99.90
16974;DHT22;8603;46.944;7.412;2023-04-25T06:03:03;7.00;99.90
16974;DHT22;8603;46.944;7.412;2023-04-25T06:05:29;7.00;99.90
16974;DHT22;8603;46.944;7.412;2023-04-25T06:07:55;7.00;99.90
16974;DHT22;8603;46.944;7.412;2023-04-25T06:10:21;7.10;99.90
16974;DHT22;8603;46.944;7.412;2023-04-25T06:12:48;7.10;99.90
16974;DHT22;8603;46.944;7.412;2023-04-25T06:15:13;7.20;99.90
16974;DHT22;8603;46.944;7.412;2023-04-25T06:17:39;7.10;99.90
16974;DHT22;8603;46.944;7.412;2023-04-25T06:20:05;7.30;99.90
16974;DHT22;8603;46.944;7.412;2023-04-25T06:22:31;7.30;99.90
16974;DHT22;8603;46.944;7.412;2023-04-25T06:24:57;7.40;99.90
16974;DHT22;8603;46.944;7.412;2023-04-25T06:27:24;7.60;99.90
16974;DHT22;8603;46.944;7.412;2023-04-25T06:29:50;7.60;99.90
16974;DHT22;8603;46.944;7.412;2023-04-25T06:32:15;7.70;99.90
16974;DHT22;8603;46.944;7.412;2023-04-25T06:34:43;7.80;99.90
16974;DHT22;8603;46.944;7.412;2023-04-25T06:37:09;7.90;99.90
16974;DHT22;8603;46.944;7.412;2023-04-25T06:39:34;8.00;99.90
16974;DHT22;8603;46.944;7.412;2023-04-25T06:42:00;7.90;99.90
16974;DHT22;8603;46.944;7.412;2023-04-25T06:44:25;7.90;99.90
16974;DHT22;8603;46.944;7.412;2023-04-25T06:46:51;7.80;99.90
16974;DHT22;8603;46.944;7.412;2023-04-25T06:49:17;8.10;99.90
16974;DHT22;8603;46.944;7.412;2023-04-25T06:51:43;8.20;99.90
16974;DHT22;8603;46.944;7.412;2023-04-25T06:54:08;8.60;99.90
16974;DHT22;8603;46.944;7.412;2023-04-25T06:56:34;8.80;99.90
16974;DHT22;8603;46.944;7.412;2023-04-25T06:59:00;9.40;99.90
16974;DHT22;8603;46.944;7.412;2023-04-25T07:01:26;10.20;99.90
16974;DHT22;8603;46.944;7.412;2023-04-25T07:03:51;10.90;99.90
16974;DHT22;8603;46.944;7.412;2023-04-25T07:06:17;11.40;99.90
16974;DHT22;8603;46.944;7.412;2023-04-25T07:08:43;11.70;99.90
16974;DHT22;8603;46.944;7.412;2023-04-25T07:11:09;12.00;99.90
16974;DHT22;8603;46.944;7.412;2023-04-25T07:13:34;12.10;99.90
16974;DHT22;8603;46.944;7.412;2023-04-25T07:16:00;11.80;99.90
16974;DHT22;8603;46.944;7.412;2023-04-25T07:18:26;11.30;99.90
16974;DHT22;8603;46.944;7.412;2023-04-25T07:20:51;11.10;99.90
16974;DHT22;8603;46.944;7.412;2023-04-25T07:23:17;11.10;99.90
16974;DHT22;8603;46.944;7.412;2023-04-25T07:25:43;10.60;99.90
16974;DHT22;8603;46.944;7.412;2023-04-25T07:28:08;10.00;99.90
16974;DHT22;8603;46.944;7.412;2023-04-25T07:30:40;9.30;99.90
16974;DHT22;8603;46.944;7.412;2023-04-25T07:33:08;8.80;99.90
16974;DHT22;8603;46.944;7.412;2023-04-25T07:35:38;8.30;99.90
16974;DHT22;8603;46.944;7.412;2023-04-25T07:41:12;7.60;99.90
16974;DHT22;8603;46.944;7.412;2023-04-25T07:43:48;7.40;99.90
16974;DHT22;8603;46.944;7.412;2023-04-25T07:46:16;7.10;99.90
16974;DHT22;8603;46.944;7.412;2023-04-25T07:48:44;7.00;99.90
16974;DHT22;8603;46.944;7.412;2023-04-25T07:51:25;6.90;99.90
16974;DHT22;8603;46.944;7.412;2023-04-25T07:53:51;6.80;99.90
16974;DHT22;8603;46.944;7.412;2023-04-25T07:56:21;6.60;99.90
16974;DHT22;8603;46.944;7.412;2023-04-25T07:59:15;6.40;99.90
16974;DHT22;8603;46.944;7.412;2023-04-25T08:02:19;6.30;99.90
16974;DHT22;8603;46.944;7.412;2023-04-25T08:05:03;6.20;99.90
16974;DHT22;8603;46.944;7.412;2023-04-25T08:08:06;6.20;99.90
16974;DHT22;8603;46.944;7.412;2023-04-25T08:14:01;6.70;99.90
16974;DHT22;8603;46.944;7.412;2023-04-25T08:16:30;8.00;99.90
16974;DHT22;8603;46.944;7.412;2023-04-25T08:18:56;10.80;99.90
16974;DHT22;8603;46.944;7.412;2023-04-25T08:21:22;14.60;99.90
16974;DHT22;8603;46.944;7.412;2023-04-25T08:24:00;18.30;99.90
16974;DHT22;8603;46.944;7.412;2023-04-25T08:26:38;21.10;99.90
16974;DHT22;8603;46.944;7.412;2023-04-25T08:29:05;22.90;99.90
16974;DHT22;8603;46.944;7.412;2023-04-25T08:31:40;24.40;99.90
16974;DHT22;8603;46.944;7.412;2023-04-25T08:34:06;26.20;99.20
16974;DHT22;8603;46.944;7.412;2023-04-25T08:36:32;27.90;96.50
16974;DHT22;8603;46.944;7.412;2023-04-25T08:39:18;28.30;93.00
16974;DHT22;8603;46.944;7.412;2023-04-25T08:41:47;28.30;90.50
16974;DHT22;8603;46.944;7.412;2023-04-25T08:44:13;27.10;90.00
16974;DHT22;8603;46.944;7.412;2023-04-25T08:46:40;25.40;90.50
16974;DHT22;8603;46.944;7.412;2023-04-25T08:49:07;24.00;93.30
16974;DHT22;8603;46.944;7.412;2023-04-25T08:51:45;23.60;92.50
16974;DHT22;8603;46.944;7.412;2023-04-25T08:54:27;22.70;91.50
16974;DHT22;8603;46.944;7.412;2023-04-25T08:56:54;21.20;93.30
16974;DHT22;8603;46.944;7.412;2023-04-25T08:59:24;19.60;93.70
16974;DHT22;8603;46.944;7.412;2023-04-25T09:01:53;18.60;95.30
16974;DHT22;8603;46.944;7.412;2023-04-25T09:04:24;17.00;98.60
16974;DHT22;8603;46.944;7.412;2023-04-25T09:06:50;16.00;99.90
16974;DHT22;8603;46.944;7.412;2023-04-25T09:09:16;15.00;99.90
16974;DHT22;8603;46.944;7.412;2023-04-25T09:11:42;14.10;99.90
16974;DHT22;8603;46.944;7.412;2023-04-25T09:14:14;13.40;99.90
16974;DHT22;8603;46.944;7.412;2023-04-25T09:17:01;12.00;99.90
16974;DHT22;8603;46.944;7.412;2023-04-25T09:19:32;10.50;99.90
16974;DHT22;8603;46.944;7.412;2023-04-25T09:22:11;9.50;99.90
16974;DHT22;8603;46.944;7.412;2023-04-25T09:28:07;8.20;99.90
16974;DHT22;8603;46.944;7.412;2023-04-25T09:30:41;7.90;99.90
16974;DHT22;8603;46.944;7.412;2023-04-25T09:36:05;7.90;99.90
16974;DHT22;8603;46.944;7.412;2023-04-25T09:38:50;7.90;99.90
16974;DHT22;8603;46.944;7.412;2023-04-25T09:41:31;8.00;99.90
16974;DHT22;8603;46.944;7.412;2023-04-25T09:44:38;8.20;99.90
16974;DHT22;8603;46.944;7.412;2023-04-25T09:47:40;8.60;99.90
16974;DHT22;8603;46.944;7.412;2023-04-25T09:56:57;11.50;99.90
16974;DHT22;8603;46.944;7.412;2023-04-25T09:59:55;12.00;99.90
16974;DHT22;8603;46.944;7.412;2023-04-25T10:02:24;12.40;99.90
16974;DHT22;8603;46.944;7.412;2023-04-25T10:08:46;13.00;99.90
16974;DHT22;8603;46.944;7.412;2023-04-25T10:11:39;13.30;99.90
16974;DHT22;8603;46.944;7.412;2023-04-25T10:14:05;13.50;99.90
16974;DHT22;8603;46.944;7.412;2023-04-25T10:16:34;13.60;99.90
16974;DHT22;8603;46.944;7.412;2023-04-25T10:19:04;13.60;99.90
16974;DHT22;8603;46.944;7.412;2023-04-25T10:21:31;13.70;99.90
16974;DHT22;8603;46.944;7.412;2023-04-25T10:27:14;13.10;99.90
16974;DHT22;8603;46.944;7.412;2023-04-25T10:30:02;12.60;99.90
16974;DHT22;8603;46.944;7.412;2023-04-25T10:36:18;12.10;99.90
16974;DHT22;8603;46.944;7.412;2023-04-25T10:41:30;11.80;99.90
16974;DHT22;8603;46.944;7.412;2023-04-25T10:44:04;12.10;99.90
16974;DHT22;8603;46.944;7.412;2023-04-25T10:46:30;12.30;99.90
16974;DHT22;8603;46.944;7.412;2023-04-25T11:10:37;15.40;99.90
16974;DHT22;8603;46.944;7.412;2023-04-25T11:13:07;15.30;99.90
16974;DHT22;8603;46.944;7.412;2023-04-25T11:15:38;15.00;99.90
16974;DHT22;8603;46.944;7.412;2023-04-25T11:18:16;14.50;99.90
16974;DHT22;8603;46.944;7.412;2023-04-25T11:20:44;14.10;99.90
16974;DHT22;8603;46.944;7.412;2023-04-25T11:23:42;13.70;99.90
16974;DHT22;8603;46.944;7.412;2023-04-25T11:26:30;13.50;99.90
16974;DHT22;8603;46.944;7.412;2023-04-25T11:28:59;13.30;99.90
16974;DHT22;8603;46.944;7.412;2023-04-25T11:31:26;13.10;99.90
16974;DHT22;8603;46.944;7.412;2023-04-25T11:33:53;13.00;99.90
16974;DHT22;8603;46.944;7.412;2023-04-25T11:36:20;13.00;99.90
16974;DHT22;8603;46.944;7.412;2023-04-25T11:38:45;13.00;99.90
16974;DHT22;8603;46.944;7.412;2023-04-25T11:41:16;12.90;99.90
16974;DHT22;8603;46.944;7.412;2023-04-25T11:43:58;12.70;99.90
16974;DHT22;8603;46.944;7.412;2023-04-25T11:46:23;12.40;99.90
16974;DHT22;8603;46.944;7.412;2023-04-25T11:48:49;12.10;99.90
16974;DHT22;8603;46.944;7.412;2023-04-25T11:51:21;11.70;99.90
16974;DHT22;8603;46.944;7.412;2023-04-25T11:53:55;11.30;99.90
16974;DHT22;8603;46.944;7.412;2023-04-25T11:56:26;10.80;99.90
16974;DHT22;8603;46.944;7.412;2023-04-25T11:59:10;10.60;99.90
16974;DHT22;8603;46.944;7.412;2023-04-25T12:05:30;10.40;99.90
16974;DHT22;8603;46.944;7.412;2023-04-25T12:08:21;10.60;99.90
16974;DHT22;8603;46.944;7.412;2023-04-25T12:14:39;11.30;99.90
16974;DHT22;8603;46.944;7.412;2023-04-25T12:17:46;11.70;99.90
16974;DHT22;8603;46.944;7.412;2023-04-25T12:20:57;11.90;99.90
16974;DHT22;8603;46.944;7.412;2023-04-25T12:23:27;11.90;99.90
16974;DHT22;8603;46.944;7.412;2023-04-25T12:26:45;11.90;99.90
16974;DHT22;8603;46.944;7.412;2023-04-25T12:33:58;12.00;99.90
16974;DHT22;8603;46.944;7.412;2023-04-25T12:44:19;12.80;99.90
16974;DHT22;8603;46.944;7.412;2023-04-25T12:50:35;12.60;99.90
16974;DHT22;8603;46.944;7.412;2023-04-25T12:53:14;12.70;99.90
16974;DHT22;8603;46.944;7.412;2023-04-25T12:55:43;12.70;99.90
16974;DHT22;8603;46.944;7.412;2023-04-25T12:58:16;12.70;99.90
16974;DHT22;8603;46.944;7.412;2023-04-25T13:00:43;12.90;99.90
16974;DHT22;8603;46.944;7.412;2023-04-25T13:03:08;13.20;99.90
16974;DHT22;8603;46.944;7.412;2023-04-25T13:05:35;13.50;99.90
16974;DHT22;8603;46.944;7.412;2023-04-25T13:08:04;13.70;99.90
16974;DHT22;8603;46.944;7.412;2023-04-25T13:10:40;13.60;99.90
16974;DHT22;8603;46.944;7.412;2023-04-25T13:13:07;13.50;99.90
16974;DHT22;8603;46.944;7.412;2023-04-25T13:15:35;13.20;99.90
16974;DHT22;8603;46.944;7.412;2023-04-25T13:18:09;13.10;99.90
16974;DHT22;8603;46.944;7.412;2023-04-25T13:20:35;12.70;99.90
16974;DHT22;8603;46.944;7.412;2023-04-25T13:23:01;12.70;99.90
16974;DHT22;8603;46.944;7.412;2023-04-25T13:25:26;12.70;99.90
16974;DHT22;8603;46.944;7.412;2023-04-25T13:27:52;12.60;99.90
16974;DHT22;8603;46.944;7.412;2023-04-25T13:30:18;12.70;99.90
16974;DHT22;8603;46.944;7.412;2023-04-25T13:38:51;12.30;99.90
16974;DHT22;8603;46.944;7.412;2023-04-25T13:41:17;12.20;99.90
16974;DHT22;8603;46.944;7.412;2023-04-25T13:43:45;12.40;99.90
16974;DHT22;8603;46.944;7.412;2023-04-25T13:46:20;12.50;99.90
16974;DHT22;8603;46.944;7.412;2023-04-25T13:48:49;12.60;99.90
16974;DHT22;8603;46.944;7.412;2023-04-25T13:51:16;12.80;99.90
16974;DHT22;8603;46.944;7.412;2023-04-25T13:53:42;12.80;99.90
16974;DHT22;8603;46.944;7.412;2023-04-25T13:56:17;12.80;99.90
16974;DHT22;8603;46.944;7.412;2023-04-25T13:58:44;13.00;99.90
16974;DHT22;8603;46.944;7.412;2023-04-25T14:01:10;12.90;99.90
16974;DHT22;8603;46.944;7.412;2023-04-25T14:03:39;12.80;99.90
16974;DHT22;8603;46.944;7.412;2023-04-25T14:06:05;12.50;99.90
16974;DHT22;8603;46.944;7.412;2023-04-25T14:08:31;12.20;99.90
16974;DHT22;8603;46.944;7.412;2023-04-25T14:10:57;12.00;99.90
16974;DHT22;8603;46.944;7.412;2023-04-25T14:13:23;11.80;99.90
16974;DHT22;8603;46.944;7.412;2023-04-25T14:15:49;11.80;99.90
16974;DHT22;8603;46.944;7.412;2023-04-25T14:18:15;11.90;99.90
16974;DHT22;8603;46.944;7.412;2023-04-25T14:20:41;11.80;99.90
16974;DHT22;8603;46.944;7.412;2023-04-25T14:23:07;11.90;99.90
16974;DHT22;8603;46.944;7.412;2023-04-25T14:25:32;12.10;99.90
16974;DHT22;8603;46.944;7.412;2023-04-25T14:27:58;12.00;99.90
16974;DHT22;8603;46.944;7.412;2023-04-25T14:30:26;11.90;99.90
16974;DHT22;8603;46.944;7.412;2023-04-25T14:32:53;11.40;99.90
16974;DHT22;8603;46.944;7.412;2023-04-25T14:35:19;10.90;99.90
16974;DHT22;8603;46.944;7.412;2023-04-25T14:37:45;10.60;99.90
16974;DHT22;8603;46.944;7.412;2023-04-25T14:40:11;10.30;99.90
16974;DHT22;8603;46.944;7.412;2023-04-25T14:42:39;10.10;99.90
16974;DHT22;8603;46.944;7.412;2023-04-25T14:45:07;9.70;99.90
16974;DHT22;8603;46.944;7.412;2023-04-25T14:47:34;9.50;99.90
16974;DHT22;8603;46.944;7.412;2023-04-25T14:56:45;9.70;99.90
16974;DHT22;8603;46.944;7.412;2023-04-25T14:59:34;10.10;99.90
16974;DHT22;8603;46.944;7.412;2023-04-25T15:01:59;10.60;99.90
16974;DHT22;8603;46.944;7.412;2023-04-25T15:04:28;11.10;99.90
16974;DHT22;8603;46.944;7.412;2023-04-25T15:06:58;11.70;99.90
16974;DHT22;8603;46.944;7.412;2023-04-25T15:09:24;12.30;99.90
16974;DHT22;8603;46.944;7.412;2023-04-25T15:11:50;12.70;99.90
16974;DHT22;8603;46.944;7.412;2023-04-25T15:14:17;13.10;99.90
16974;DHT22;8603;46.944;7.412;2023-04-25T15:16:42;13.50;99.90
16974;DHT22;8603;46.944;7.412;2023-04-25T15:19:08;13.70;99.90
16974;DHT22;8603;46.944;7.412;2023-04-25T15:21:34;13.90;99.90
16974;DHT22;8603;46.944;7.412;2023-04-25T15:24:00;13.90;99.90
16974;DHT22;8603;46.944;7.412;2023-04-25T15:26:29;13.80;99.90
16974;DHT22;8603;46.944;7.412;2023-04-25T15:28:57;13.60;99.90
16974;DHT22;8603;46.944;7.412;2023-04-25T15:31:23;13.60;99.90
16974;DHT22;8603;46.944;7.412;2023-04-25T15:33:48;13.40;99.90
16974;DHT22;8603;46.944;7.412;2023-04-25T15:36:14;13.30;99.90
16974;DHT22;8603;46.944;7.412;2023-04-25T15:38:42;13.20;99.90
16974;DHT22;8603;46.944;7.412;2023-04-25T15:41:08;13.10;99.90
16974;DHT22;8603;46.944;7.412;2023-04-25T15:43:34;12.80;99.90
16974;DHT22;8603;46.944;7.412;2023-04-25T15:46:04;12.60;99.90
16974;DHT22;8603;46.944;7.412;2023-04-25T15:48:30;12.50;99.90
16974;DHT22;8603;46.944;7.412;2023-04-25T15:50:57;12.30;99.90
16974;DHT22;8603;46.944;7.412;2023-04-25T15:53:23;11.90;99.90
16974;DHT22;8603;46.944;7.412;2023-04-25T15:55:48;11.70;99.90
16974;DHT22;8603;46.944;7.412;2023-04-25T15:58:14;11.70;99.90
16974;DHT22;8603;46.944;7.412;2023-04-25T16:00:40;11.50;99.90
16974;DHT22;8603;46.944;7.412;2023-04-25T16:03:06;11.10;99.90
16974;DHT22;8603;46.944;7.412;2023-04-25T16:05:31;10.90;99.90
16974;DHT22;8603;46.944;7.412;2023-04-25T16:08:00;10.90;99.90
16974;DHT22;8603;46.944;7.412;2023-04-25T16:10:26;11.00;99.90
16974;DHT22;8603;46.944;7.412;2023-04-25T16:12:52;11.20;99.90
16974;DHT22;8603;46.944;7.412;2023-04-25T16:15:17;11.30;99.90
16974;DHT22;8603;46.944;7.412;2023-04-25T16:17:43;11.60;99.90
16974;DHT22;8603;46.944;7.412;2023-04-25T16:20:10;11.50;99.90
16974;DHT22;8603;46.944;7.412;2023-04-25T16:22:41;11.60;99.90
16974;DHT22;8603;46.944;7.412;2023-04-25T16:25:10;11.60;99.90
16974;DHT22;8603;46.944;7.412;2023-04-25T16:27:36;11.80;99.90
16974;DHT22;8603;46.944;7.412;2023-04-25T16:30:06;11.80;99.90
16974;DHT22;8603;46.944;7.412;2023-04-25T16:32:33;11.90;99.90
16974;DHT22;8603;46.944;7.412;2023-04-25T16:34:58;12.10;99.90
16974;DHT22;8603;46.944;7.412;2023-04-25T16:37:24;12.20;99.90
16974;DHT22;8603;46.944;7.412;2023-04-25T16:39:50;12.20;99.90
16974;DHT22;8603;46.944;7.412;2023-04-25T16:42:16;12.30;99.90
16974;DHT22;8603;46.944;7.412;2023-04-25T16:44:41;12.20;99.90
16974;DHT22;8603;46.944;7.412;2023-04-25T16:47:07;12.30;99.90
16974;DHT22;8603;46.944;7.412;2023-04-25T16:49:32;12.20;99.90
16974;DHT22;8603;46.944;7.412;2023-04-25T16:51:58;12.20;99.90
16974;DHT22;8603;46.944;7.412;2023-04-25T16:54:24;12.30;99.90
16974;DHT22;8603;46.944;7.412;2023-04-25T16:56:50;12.10;99.90
16974;DHT22;8603;46.944;7.412;2023-04-25T16:59:16;12.10;99.90
16974;DHT22;8603;46.944;7.412;2023-04-25T17:01:42;12.00;99.90
16974;DHT22;8603;46.944;7.412;2023-04-25T17:04:07;12.00;99.90
16974;DHT22;8603;46.944;7.412;2023-04-25T17:06:33;12.00;99.90
16974;DHT22;8603;46.944;7.412;2023-04-25T17:08:59;12.10;99.90
16974;DHT22;8603;46.944;7.412;2023-04-25T17:11:25;11.90;99.90
16974;DHT22;8603;46.944;7.412;2023-04-25T17:13:51;11.90;99.90
16974;DHT22;8603;46.944;7.412;2023-04-25T17:16:20;12.10;99.90
16974;DHT22;8603;46.944;7.412;2023-04-25T17:18:48;11.90;99.90
16974;DHT22;8603;46.944;7.412;2023-04-25T17:21:16;12.00;99.90
16974;DHT22;8603;46.944;7.412;2023-04-25T17:23:41;11.90;99.90
16974;DHT22;8603;46.944;7.412;2023-04-25T17:26:11;11.90;99.90
16974;DHT22;8603;46.944;7.412;2023-04-25T17:28:37;11.90;99.90
16974;DHT22;8603;46.944;7.412;2023-04-25T17:31:03;12.00;99.90
16974;DHT22;8603;46.944;7.412;2023-04-25T17:33:28;11.80;99.90
16974;DHT22;8603;46.944;7.412;2023-04-25T17:35:54;11.70;99.90